Dobrin — AEDY — position and weather

sailwx.info

Track history (hours):
 
Tides and Currents Weather Stations Pressure Air Temp Water Temp Dewpoint Dewpoint Depression Visibility Wind Speed Wind Dir Waves Ship Positions

Dobrin

Last reported at 2017-Dec-13 19:14 UTC. Time now 2017-Dec-16 14:48 UTC.
Position N 40°41' W 074°04'.

Length 22 m; draft 2 m.

Type: Other ship. MMSI: 366999422.

Date/timePositionNaut miles runAvg speedWind from/ knotsBaromVisibWave heightAir tempDewpointWater temp
2017-Dec-13 19:14N 40°41' W 074°04'0 0.1
2017-Dec-13 19:00N 40°41' W 074°04'0 0.0
2017-Dec-13 18:30N 40°41' W 074°04'0 0.0
2017-Dec-13 18:00N 40°41' W 074°04'0 0.0
2017-Dec-13 17:30N 40°41' W 074°04'0 0.0
2017-Dec-13 17:00N 40°41' W 074°04'0 0.0
2017-Dec-13 16:30N 40°41' W 074°04'0 0.0
2017-Dec-13 16:00N 40°41' W 074°04'0 0.0
2017-Dec-13 15:29N 40°41' W 074°04'0 0.0
2017-Dec-13 15:00N 40°41' W 074°04'0 0.0
2017-Dec-13 14:30N 40°41' W 074°04'0 0.0
2017-Dec-13 13:59N 40°41' W 074°04'0 0.0
2017-Dec-13 13:30N 40°41' W 074°04'0 0.0
2017-Dec-13 12:56N 40°41' W 074°04'0 0.0
2017-Dec-13 12:29N 40°41' W 074°04'0 0.0
2017-Dec-11 20:21N 40°41' W 074°04'2 5.3
2017-Dec-11 20:00N 40°39' W 074°04'3 6.6
2017-Dec-11 19:30N 40°39' W 074°08'0 0.5
2017-Dec-11 18:59N 40°39' W 074°08'0 0.2
2017-Dec-11 18:29N 40°39' W 074°08'0 0.5
2017-Dec-11 17:59N 40°39' W 074°08'1 1.0
2017-Dec-11 17:28N 40°39' W 074°07'0 0.6
2017-Dec-11 17:00N 40°39' W 074°08'0 0.7
2017-Dec-11 16:30N 40°39' W 074°08'0 0.7
2017-Dec-11 15:59N 40°39' W 074°08'0 0.8
2017-Dec-11 15:30N 40°39' W 074°07'1 2.8
2017-Dec-11 15:00N 40°39' W 074°05'2 4.4
2017-Dec-11 14:30N 40°40' W 074°03'  
2017-Dec-08 19:45N 40°41' W 074°04'1 5.4
2017-Dec-08 19:30N 40°39' W 074°03'2 3.8
2017-Dec-08 19:00N 40°39' W 074°06'1 1.4
2017-Dec-08 18:30N 40°39' W 074°07'0 0.3
2017-Dec-08 18:00N 40°39' W 074°07'0 0.7
2017-Dec-08 17:30N 40°39' W 074°07'1 2.1
2017-Dec-08 17:00N 40°39' W 074°06'0 0.1
2017-Dec-08 16:30N 40°39' W 074°06'0 0.8
2017-Dec-08 16:00N 40°39' W 074°06'0 0.7
2017-Dec-08 15:30N 40°39' W 074°06'1 1.3
2017-Dec-08 15:00N 40°39' W 074°05'0 0.3
2017-Dec-08 14:30N 40°39' W 074°05'2 3.9
2017-Dec-08 14:00N 40°40' W 074°03'2 3.1
2017-Dec-08 13:30N 40°41' W 074°04'0 0.0
2017-Dec-08 13:00N 40°41' W 074°04'0 0.0
2017-Dec-08 12:30N 40°41' W 074°04'1 0.1
2017-Dec-07 20:07N 40°40' W 074°04'1 4.9
2017-Dec-07 20:00N 40°39' W 074°04'0 0.1
2017-Dec-07 19:30N 40°39' W 074°04'1 1.5
2017-Dec-07 19:00N 40°39' W 074°05'0 0.1
2017-Dec-07 18:30N 40°39' W 074°05'1 1.7
2017-Dec-07 18:00N 40°39' W 074°04'0 0.6
2017-Dec-07 17:30N 40°39' W 074°04'1 1.0
2017-Dec-07 17:00N 40°39' W 074°05'1 1.8
2017-Dec-07 16:30N 40°39' W 074°03'1 1.5
2017-Dec-07 16:00N 40°39' W 074°04'1 1.1
2017-Dec-07 15:30N 40°39' W 074°04'1 2.2
2017-Dec-07 15:00N 40°40' W 074°03'2 3.1
2017-Dec-07 14:30N 40°41' W 074°04'0 0.0
2017-Dec-07 14:00N 40°41' W 074°04'0 0.0
2017-Dec-07 13:30N 40°41' W 074°04'0 0.0
2017-Dec-07 12:59N 40°41' W 074°04'0 0.0
2017-Dec-07 12:30N 40°41' W 074°04'  
Track history (hours):
 
Tides and Currents Weather Stations Pressure Air Temp Water Temp Dewpoint Dewpoint Depression Visibility Wind Speed Wind Dir Waves Ship Positions

Dobrin

Last reported at 2017-Dec-13 19:14 UTC. Time now 2017-Dec-16 14:48 UTC.
Position N 40°41' W 074°04'.

Length 22 m; draft 2 m.

Type: Other ship. MMSI: 366999422.

Date/timePositionNaut miles runAvg speedWind from/ knotsBaromVisibWave heightAir tempDewpointWater temp
2017-Dec-13 19:14N 40°41' W 074°04'0 0.1
2017-Dec-13 19:00N 40°41' W 074°04'0 0.0
2017-Dec-13 18:30N 40°41' W 074°04'0 0.0
2017-Dec-13 18:00N 40°41' W 074°04'0 0.0
2017-Dec-13 17:30N 40°41' W 074°04'0 0.0
2017-Dec-13 17:00N 40°41' W 074°04'0 0.0
2017-Dec-13 16:30N 40°41' W 074°04'0 0.0
2017-Dec-13 16:00N 40°41' W 074°04'0 0.0
2017-Dec-13 15:29N 40°41' W 074°04'0 0.0
2017-Dec-13 15:00N 40°41' W 074°04'0 0.0
2017-Dec-13 14:30N 40°41' W 074°04'0 0.0
2017-Dec-13 13:59N 40°41' W 074°04'0 0.0
2017-Dec-13 13:30N 40°41' W 074°04'0 0.0
2017-Dec-13 12:56N 40°41' W 074°04'0 0.0
2017-Dec-13 12:29N 40°41' W 074°04'0 0.0
2017-Dec-11 20:21N 40°41' W 074°04'2 5.3
2017-Dec-11 20:00N 40°39' W 074°04'3 6.6
2017-Dec-11 19:30N 40°39' W 074°08'0 0.5
2017-Dec-11 18:59N 40°39' W 074°08'0 0.2
2017-Dec-11 18:29N 40°39' W 074°08'0 0.5
2017-Dec-11 17:59N 40°39' W 074°08'1 1.0
2017-Dec-11 17:28N 40°39' W 074°07'0 0.6
2017-Dec-11 17:00N 40°39' W 074°08'0 0.7
2017-Dec-11 16:30N 40°39' W 074°08'0 0.7
2017-Dec-11 15:59N 40°39' W 074°08'0 0.8
2017-Dec-11 15:30N 40°39' W 074°07'1 2.8
2017-Dec-11 15:00N 40°39' W 074°05'2 4.4
2017-Dec-11 14:30N 40°40' W 074°03'  
2017-Dec-08 19:45N 40°41' W 074°04'1 5.4
2017-Dec-08 19:30N 40°39' W 074°03'2 3.8
2017-Dec-08 19:00N 40°39' W 074°06'1 1.4
2017-Dec-08 18:30N 40°39' W 074°07'0 0.3
2017-Dec-08 18:00N 40°39' W 074°07'0 0.7
2017-Dec-08 17:30N 40°39' W 074°07'1 2.1
2017-Dec-08 17:00N 40°39' W 074°06'0 0.1
2017-Dec-08 16:30N 40°39' W 074°06'0 0.8
2017-Dec-08 16:00N 40°39' W 074°06'0 0.7
2017-Dec-08 15:30N 40°39' W 074°06'1 1.3
2017-Dec-08 15:00N 40°39' W 074°05'0 0.3
2017-Dec-08 14:30N 40°39' W 074°05'2 3.9
2017-Dec-08 14:00N 40°40' W 074°03'2 3.1
2017-Dec-08 13:30N 40°41' W 074°04'0 0.0
2017-Dec-08 13:00N 40°41' W 074°04'0 0.0
2017-Dec-08 12:30N 40°41' W 074°04'1 0.1
2017-Dec-07 20:07N 40°40' W 074°04'1 4.9
2017-Dec-07 20:00N 40°39' W 074°04'0 0.1
2017-Dec-07 19:30N 40°39' W 074°04'1 1.5
2017-Dec-07 19:00N 40°39' W 074°05'0 0.1
2017-Dec-07 18:30N 40°39' W 074°05'1 1.7
2017-Dec-07 18:00N 40°39' W 074°04'0 0.6
2017-Dec-07 17:30N 40°39' W 074°04'1 1.0
2017-Dec-07 17:00N 40°39' W 074°05'1 1.8
2017-Dec-07 16:30N 40°39' W 074°03'1 1.5
2017-Dec-07 16:00N 40°39' W 074°04'1 1.1
2017-Dec-07 15:30N 40°39' W 074°04'1 2.2
2017-Dec-07 15:00N 40°40' W 074°03'2 3.1
2017-Dec-07 14:30N 40°41' W 074°04'0 0.0
2017-Dec-07 14:00N 40°41' W 074°04'0 0.0
2017-Dec-07 13:30N 40°41' W 074°04'0 0.0
2017-Dec-07 12:59N 40°41' W 074°04'0 0.0
2017-Dec-07 12:30N 40°41' W 074°04'  

Dump ship's entire track history